Time;durP1;ratioP1;P1;durP2;ratioP2;P2;SDS_P1;SDS_P2;PMS_P1;PMS_P2;Temp;Humidity;BMP_temperature;BMP_pressure;BME280_temperature;BME280_humidity;BME280_pressure;Samples;Min_cycle;Max_cycle;Signal;HPM_P1;HPM_P2
2023/03/31 00:00:31;;;;;;;1.37;1.27;;;;;;;10.48;87.56;95046.09;4390068;32;20188;-51
2023/03/31 00:02:57;;;;;;;1.20;1.20;;;;;;;10.58;87.12;95039.78;4380217;32;20251;-53
2023/03/31 00:05:26;;;;;;;1.13;1.13;;;;;;;10.71;86.09;95036.31;4386613;32;20180;-52
2023/03/31 00:07:59;;;;;;;1.17;1.17;;;;;;;10.71;86.16;95030.22;4387495;32;20189;-49
2023/03/31 00:10:30;;;;;;;1.50;1.40;;;;;;;10.53;87.22;95024.78;4386644;32;20189;-50
2023/03/31 00:12:56;;;;;;;1.73;1.63;;;;;;;10.63;86.64;95029.06;4388236;32;20279;-53
2023/03/31 00:15:22;;;;;;;3.10;2.03;;;;;;;10.61;85.67;95015.28;4388112;32;20197;-49
2023/03/31 00:17:47;;;;;;;2.30;2.10;;;;;;;10.56;86.46;95010.13;4390562;32;20211;-53
2023/03/31 00:20:13;;;;;;;1.57;1.47;;;;;;;10.48;87.47;95005.53;4389871;32;20243;-53
2023/03/31 00:22:41;;;;;;;1.17;1.10;;;;;;;10.68;86.71;94999.75;4387250;32;20188;-50
2023/03/31 00:25:08;;;;;;;1.43;1.43;;;;;;;10.51;86.93;94997.75;4374713;32;20283;-53
2023/03/31 00:27:34;;;;;;;1.53;1.43;;;;;;;10.62;86.14;95001.75;4391939;32;20192;-52
2023/03/31 00:29:59;;;;;;;1.50;1.43;;;;;;;10.55;86.19;94990.00;4377601;32;20251;-50
2023/03/31 00:32:25;;;;;;;1.77;1.67;;;;;;;10.63;86.16;94987.38;4377687;32;20192;-52
2023/03/31 00:34:50;;;;;;;1.03;1.03;;;;;;;10.59;85.96;94985.66;4372943;32;20208;-52
2023/03/31 00:37:15;;;;;;;0.97;0.73;;;;;;;10.50;86.15;94984.81;4379322;32;20207;-54
2023/03/31 00:39:41;;;;;;;1.50;1.30;;;;;;;10.65;85.87;94971.19;4380694;32;20234;-52
2023/03/31 00:42:11;;;;;;;1.73;1.50;;;;;;;10.58;86.25;94974.28;4389986;32;20188;-50
2023/03/31 00:44:58;;;;;;;2.60;1.63;;;;;;;10.47;87.04;94964.19;4380943;32;20198;-51
2023/03/31 00:47:25;;;;;;;1.13;1.13;;;;;;;10.51;86.58;94971.25;4383184;32;20239;-51
2023/03/31 00:49:55;;;;;;;2.10;1.70;;;;;;;10.54;86.58;94956.59;4386208;32;20198;-51
2023/03/31 00:52:29;;;;;;;2.03;1.43;;;;;;;10.46;86.78;94941.41;4390900;32;20220;-49
2023/03/31 00:55:00;;;;;;;0.97;0.97;;;;;;;10.36;86.74;94944.31;4378108;32;20197;-50
2023/03/31 00:57:27;;;;;;;1.27;1.27;;;;;;;10.39;86.97;94947.16;4369835;32;20247;-52
2023/03/31 00:59:58;;;;;;;1.57;1.20;;;;;;;10.50;85.86;94943.16;4372696;32;20228;-51
2023/03/31 01:02:27;;;;;;;1.60;1.50;;;;;;;10.59;85.85;94943.22;4383023;32;20195;-51
2023/03/31 01:04:58;;;;;;;1.87;1.77;;;;;;;10.52;86.31;94940.19;4385430;32;20180;-52
2023/03/31 01:07:34;;;;;;;2.30;1.93;;;;;;;10.54;86.00;94935.38;4366348;32;20189;-54
2023/03/31 01:10:03;;;;;;;1.93;1.60;;;;;;;10.54;86.76;94935.38;4365866;32;20228;-54
2023/03/31 01:12:32;;;;;;;1.90;1.80;;;;;;;10.56;86.26;94930.56;4383886;32;20196;-53
2023/03/31 01:14:57;;;;;;;1.87;1.73;;;;;;;10.40;86.81;94924.81;4389708;32;20211;-51
2023/03/31 01:17:23;;;;;;;1.40;0.90;;;;;;;10.51;86.83;94920.06;4383680;32;20243;-50
2023/03/31 01:20:00;;;;;;;2.70;1.53;;;;;;;10.54;86.58;94914.16;4372876;32;20189;-53
2023/03/31 01:22:48;;;;;;;1.63;1.50;;;;;;;10.49;86.79;94914.28;4360344;32;20192;-51
2023/03/31 01:25:32;;;;;;;1.17;1.17;;;;;;;10.48;87.39;94905.53;4352107;32;20180;-52
2023/03/31 01:28:10;;;;;;;1.47;1.37;;;;;;;10.49;87.36;94903.69;4361754;32;20181;-52
2023/03/31 01:31:08;;;;;;;1.60;1.53;;;;;;;10.49;87.27;94896.50;4370437;32;20235;-53
2023/03/31 01:33:54;;;;;;;1.57;1.50;;;;;;;10.55;87.12;94894.53;4362938;32;20242;-50
2023/03/31 01:36:32;;;;;;;7.63;1.63;;;;;;;10.53;87.79;94888.72;4373753;32;20439;-52
2023/03/31 01:39:28;;;;;;;1.07;1.07;;;;;;;10.45;87.70;94876.19;4376943;32;20197;-53
2023/03/31 01:42:02;;;;;;;2.37;0.93;;;;;;;10.57;87.16;94876.44;4371157;32;20192;-50
2023/03/31 01:45:06;;;;;;;1.93;1.50;;;;;;;10.45;87.00;94862.94;4374022;32;20184;-52
2023/03/31 01:47:43;;;;;;;2.30;1.30;;;;;;;10.52;86.90;94865.94;4359641;32;20211;-53
2023/03/31 01:50:30;;;;;;;27.07;2.00;;;;;;;10.68;86.20;94867.12;4366990;32;20184;-53
2023/03/31 01:53:09;;;;;;;1.83;1.73;;;;;;;10.56;86.62;94864.25;4352384;32;20204;-53
2023/03/31 01:55:39;;;;;;;0.87;0.87;;;;;;;10.66;86.37;94863.97;4372844;32;20307;-54
2023/03/31 01:58:17;;;;;;;1.23;1.23;;;;;;;10.52;85.88;94858.00;4369251;32;20197;-53
2023/03/31 02:00:57;;;;;;;1.57;1.53;;;;;;;10.52;85.62;94864.06;4363409;32;20188;-54
2023/03/31 02:03:29;;;;;;;0.67;0.67;;;;;;;10.58;85.45;94849.59;4355849;32;20208;-48
2023/03/31 02:05:59;;;;;;;1.50;1.40;;;;;;;10.59;84.54;94845.88;4379466;32;20252;-55
2023/03/31 02:08:31;;;;;;;1.30;1.20;;;;;;;10.53;84.40;94838.34;4362916;32;20215;-52
2023/03/31 02:10:58;;;;;;;1.07;0.90;;;;;;;10.63;84.46;94836.19;4379620;32;20181;-51
2023/03/31 02:13:27;;;;;;;1.20;1.20;;;;;;;10.64;84.39;94839.63;4378955;32;20193;-52
2023/03/31 02:15:57;;;;;;;1.10;1.10;;;;;;;10.73;83.67;94824.53;4360691;32;20197;-52
2023/03/31 02:18:29;;;;;;;1.07;1.07;;;;;;;10.59;84.11;94823.88;4377284;32;20196;-51
2023/03/31 02:20:57;;;;;;;1.23;1.20;;;;;;;10.58;84.38;94819.66;4361208;32;20193;-54
2023/03/31 02:23:28;;;;;;;1.77;1.27;;;;;;;10.60;84.42;94820.88;4385638;32;20200;-53
2023/03/31 02:26:01;;;;;;;1.30;1.30;;;;;;;10.60;84.44;94820.09;4385583;32;20196;-48
2023/03/31 02:28:27;;;;;;;2.23;1.50;;;;;;;10.49;84.70;94811.66;4382219;32;20203;-52
2023/03/31 02:31:08;;;;;;;1.93;1.70;;;;;;;10.50;84.84;94815.84;4371717;32;20208;-49
2023/03/31 02:33:34;;;;;;;1.90;1.80;;;;;;;10.55;85.29;94809.66;4383266;32;20185;-53
2023/03/31 02:36:00;;;;;;;8.07;1.33;;;;;;;10.50;85.57;94813.22;4380607;32;20181;-52
2023/03/31 02:38:26;;;;;;;0.77;0.77;;;;;;;10.62;84.57;94815.28;4375930;32;20176;-54
2023/03/31 02:40:51;;;;;;;0.90;0.90;;;;;;;10.48;84.38;94817.25;4383724;32;20185;-50
2023/03/31 02:43:17;;;;;;;1.37;1.30;;;;;;;10.61;83.33;94809.19;4390282;32;20223;-52
2023/03/31 02:45:48;;;;;;;2.97;1.50;;;;;;;10.64;82.92;94813.09;4381723;32;20238;-53
2023/03/31 02:48:19;;;;;;;1.33;1.33;;;;;;;10.70;82.96;94808.44;4380507;32;20296;-51
2023/03/31 02:51:07;;;;;;;2.17;1.57;;;;;;;10.85;81.27;94806.16;4387530;32;20189;-50
2023/03/31 02:53:57;;;;;;;0.83;0.80;;;;;;;10.80;81.34;94806.31;4374204;32;20208;-51
2023/03/31 02:56:35;;;;;;;1.60;1.50;;;;;;;10.87;81.20;94817.25;4382149;32;20326;-51
2023/03/31 02:59:09;;;;;;;1.03;1.03;;;;;;;10.85;82.37;94811.47;4384504;32;20211;-51
2023/03/31 03:01:53;;;;;;;1.23;1.23;;;;;;;10.82;83.46;94804.13;4374451;32;20198;-52
2023/03/31 03:04:48;;;;;;;1.17;1.17;;;;;;;10.59;84.12;94806.09;4385891;32;20189;-53
2023/03/31 03:07:38;;;;;;;1.97;1.40;;;;;;;10.60;83.81;94810.28;4386662;32;20184;-55
2023/03/31 03:10:08;;;;;;;2.03;1.90;;;;;;;10.75;84.58;94795.06;4382704;32;20193;-51
2023/03/31 03:12:49;;;;;;;0.87;0.87;;;;;;;10.77;85.66;94792.88;4375896;32;20204;-51
2023/03/31 03:15:36;;;;;;;1.53;1.53;;;;;;;10.88;85.22;94792.28;4389407;32;20184;-52
2023/03/31 03:18:04;;;;;;;0.90;0.90;;;;;;;10.90;84.80;94795.41;4379608;32;20203;-51
2023/03/31 03:20:32;;;;;;;1.50;1.50;;;;;;;10.66;87.18;94790.50;4373616;32;20182;-52
2023/03/31 03:22:58;;;;;;;1.93;1.70;;;;;;;10.64;87.61;94802.50;4391150;32;20192;-51
2023/03/31 03:25:24;;;;;;;1.23;1.23;;;;;;;10.82;87.56;94798.81;4392218;32;20294;-53
2023/03/31 03:27:51;;;;;;;1.00;1.00;;;;;;;10.77;88.19;94800.84;4390634;32;20263;-53
2023/03/31 03:30:17;;;;;;;1.67;1.57;;;;;;;10.71;88.76;94808.16;4383258;32;20195;-53
2023/03/31 03:32:43;;;;;;;1.60;1.47;;;;;;;10.64;89.75;94810.44;4367117;32;20209;-53
2023/03/31 03:35:09;;;;;;;1.07;1.07;;;;;;;10.60;89.43;94812.16;4373440;32;20189;-53
2023/03/31 03:37:35;;;;;;;3.60;1.40;;;;;;;10.49;88.97;94814.28;4382056;32;20211;-50
2023/03/31 03:40:00;;;;;;;1.40;1.30;;;;;;;10.44;88.71;94818.94;4385714;32;20220;-54
2023/03/31 03:42:25;;;;;;;1.50;1.47;;;;;;;10.39;88.84;94819.09;4383410;32;20227;-52
2023/03/31 03:44:51;;;;;;;1.83;1.73;;;;;;;10.30;89.79;94830.41;4386912;32;20194;-54
2023/03/31 03:47:16;;;;;;;2.80;1.23;;;;;;;10.27;90.58;94831.03;4380188;32;20199;-53
2023/03/31 03:49:42;;;;;;;1.47;1.47;;;;;;;10.23;91.56;94830.06;4383469;32;20181;-55
2023/03/31 03:52:07;;;;;;;1.20;1.10;;;;;;;10.13;92.73;94835.59;4365389;32;20204;-54
2023/03/31 03:54:32;;;;;;;1.53;1.47;;;;;;;9.96;93.71;94830.94;4373202;32;20184;-53
2023/03/31 03:56:58;;;;;;;1.70;1.67;;;;;;;10.01;93.95;94827.38;4382174;32;20198;-53
2023/03/31 03:59:23;;;;;;;1.10;1.10;;;;;;;10.14;93.97;94805.34;4363631;32;20200;-54
2023/03/31 04:01:49;;;;;;;2.73;2.10;;;;;;;10.08;94.56;94811.06;4376160;32;20173;-53
2023/03/31 04:04:15;;;;;;;1.27;1.27;;;;;;;9.95;95.93;94802.09;4378847;32;20177;-52
2023/03/31 04:06:41;;;;;;;1.57;1.53;;;;;;;9.97;96.33;94790.13;4377242;32;20223;-52
2023/03/31 04:09:06;;;;;;;1.03;1.03;;;;;;;9.93;97.00;94773.25;4383091;32;20271;-51
2023/03/31 04:11:32;;;;;;;1.70;1.60;;;;;;;10.05;96.71;94767.41;4391528;32;20192;-53
2023/03/31 04:13:57;;;;;;;4.40;2.33;;;;;;;10.02;97.01;94768.00;4373186;32;20233;-51
2023/03/31 04:16:24;;;;;;;1.47;1.37;;;;;;;10.15;96.97;94763.72;4387899;32;20200;-55
2023/03/31 04:18:55;;;;;;;1.50;1.43;;;;;;;10.08;97.11;94758.84;4388507;32;20199;-55
2023/03/31 04:21:22;;;;;;;3.10;1.70;;;;;;;10.29;96.84;94754.63;4390347;32;20227;-55
2023/03/31 04:23:57;;;;;;;1.00;1.00;;;;;;;10.20;97.28;94751.13;4376640;32;20211;-55
2023/03/31 04:26:49;;;;;;;1.33;1.20;;;;;;;10.26;97.33;94749.94;4385886;32;20206;-54
2023/03/31 04:29:12;;;;;;;3.00;1.80;;;;;;;10.17;98.17;94743.78;4386386;32;20256;-52
2023/03/31 04:31:41;;;;;;;3.07;1.83;;;;;;;10.19;98.53;94733.66;4389798;32;20219;-51
2023/03/31 04:34:12;;;;;;;2.47;1.33;;;;;;;10.26;98.23;94723.41;4376444;32;20339;-52
2023/03/31 04:36:41;;;;;;;2.00;1.73;;;;;;;10.20;98.13;94714.03;4389543;32;20244;-52
2023/03/31 04:39:09;;;;;;;1.80;1.67;;;;;;;10.05;98.42;94710.97;4383425;32;20279;-52
2023/03/31 04:41:35;;;;;;;5.90;1.30;;;;;;;10.16;98.07;94696.37;4387722;32;20211;-53
2023/03/31 04:44:00;;;;;;;1.67;1.60;;;;;;;10.29;97.12;94690.22;4387903;32;20216;-53
2023/03/31 04:46:26;;;;;;;2.07;1.97;;;;;;;10.35;96.99;94696.16;4387523;32;20187;-49
2023/03/31 04:48:52;;;;;;;3.70;1.63;;;;;;;10.32;96.84;94695.69;4383944;32;20192;-52
2023/03/31 04:51:19;;;;;;;1.83;1.60;;;;;;;10.19;97.81;94680.66;4373462;32;20184;-53
2023/03/31 04:53:45;;;;;;;1.93;1.83;;;;;;;10.08;98.86;94687.28;4390753;32;20189;-53
2023/03/31 04:56:11;;;;;;;1.10;1.10;;;;;;;10.09;98.13;94688.84;4365304;32;20184;-53
2023/03/31 04:58:36;;;;;;;3.53;2.17;;;;;;;9.99;98.67;94691.75;4373267;32;20268;-52
2023/03/31 05:01:05;;;;;;;2.70;1.93;;;;;;;10.02;99.07;94674.47;4375236;32;20242;-52
2023/03/31 05:03:30;;;;;;;2.73;2.53;;;;;;;10.09;99.01;94656.28;4370572;32;20244;-53
2023/03/31 05:05:56;;;;;;;1.93;1.83;;;;;;;9.98;98.99;94618.66;4379291;32;20203;-54
2023/03/31 05:08:21;;;;;;;2.93;1.93;;;;;;;9.86;99.69;94613.16;4385876;32;20185;-53
2023/03/31 05:10:46;;;;;;;12.50;2.10;;;;;;;10.03;99.33;94613.22;4376425;32;20196;-53
2023/03/31 05:13:12;;;;;;;2.40;2.10;;;;;;;9.99;99.28;94601.66;4378824;32;20188;-52
2023/03/31 05:15:38;;;;;;;5.10;2.30;;;;;;;10.09;98.56;94588.16;4370131;32;20207;-51
2023/03/31 05:18:04;;;;;;;2.40;2.30;;;;;;;10.10;98.45;94571.16;4372504;32;20193;-50
2023/03/31 05:20:29;;;;;;;2.27;2.17;;;;;;;10.23;97.74;94575.59;4373796;32;20256;-51
2023/03/31 05:22:55;;;;;;;1.97;1.87;;;;;;;10.10;97.56;94568.53;4390575;32;20196;-53
2023/03/31 05:25:21;;;;;;;1.87;1.77;;;;;;;9.87;98.48;94567.03;4371561;32;20286;-54
2023/03/31 05:27:47;;;;;;;4.07;1.67;;;;;;;9.89;98.59;94541.81;4391072;32;20199;-58
2023/03/31 05:30:13;;;;;;;1.00;1.00;;;;;;;9.86;98.77;94531.81;4378663;32;20184;-53
2023/03/31 05:32:39;;;;;;;1.83;1.73;;;;;;;9.88;98.87;94518.28;4386909;32;20189;-51
2023/03/31 05:35:05;;;;;;;1.80;1.70;;;;;;;9.73;99.41;94524.00;4389639;32;20267;-52
2023/03/31 05:37:30;;;;;;;2.17;2.07;;;;;;;9.84;98.95;94512.03;4368321;32;20185;-54
2023/03/31 05:39:56;;;;;;;3.10;2.03;;;;;;;9.78;98.96;94521.19;4389595;32;20236;-51
2023/03/31 05:42:21;;;;;;;1.87;1.70;;;;;;;9.82;98.87;94514.97;4368485;32;20220;-52
2023/03/31 05:44:47;;;;;;;1.37;1.37;;;;;;;9.82;98.84;94506.25;4383386;32;20180;-51
2023/03/31 05:47:13;;;;;;;2.07;1.97;;;;;;;9.86;98.84;94489.44;4385913;32;20180;-53
2023/03/31 05:49:38;;;;;;;3.60;1.60;;;;;;;9.74;99.19;94491.13;4369375;32;20199;-54
2023/03/31 05:52:05;;;;;;;1.53;1.53;;;;;;;9.80;99.08;94482.72;4389083;32;20192;-54
2023/03/31 05:54:31;;;;;;;1.07;1.07;;;;;;;9.84;99.09;94472.28;4376910;32;20238;-53
2023/03/31 05:56:56;;;;;;;1.43;1.33;;;;;;;9.94;99.11;94469.38;4389473;32;20196;-54
2023/03/31 05:59:22;;;;;;;2.00;1.90;;;;;;;10.03;98.68;94456.88;4388799;32;20185;-54
2023/03/31 06:01:47;;;;;;;8.27;2.50;;;;;;;10.02;98.38;94449.25;4385025;32;20242;-51
2023/03/31 06:04:12;;;;;;;1.70;1.53;;;;;;;10.11;98.55;94434.16;4391072;32;20188;-53
2023/03/31 06:06:38;;;;;;;1.93;1.73;;;;;;;10.16;98.16;94426.84;4367335;32;20242;-55
2023/03/31 06:09:05;;;;;;;2.73;1.90;;;;;;;10.23;97.95;94427.16;4376481;32;20195;-52
2023/03/31 06:11:30;;;;;;;1.80;1.70;;;;;;;10.19;97.92;94426.22;4385074;32;20196;-54
2023/03/31 06:13:56;;;;;;;1.17;1.17;;;;;;;10.29;97.73;94422.47;4385934;32;20245;-53
2023/03/31 06:16:21;;;;;;;1.40;1.40;;;;;;;9.80;99.44;94421.03;4390908;32;20201;-54
2023/03/31 06:18:47;;;;;;;3.43;1.40;;;;;;;9.76;100.00;94406.87;4389000;32;20230;-47
2023/03/31 06:21:16;;;;;;;1.23;1.13;;;;;;;11.12;100.00;94385.75;4393734;32;20227;-45
2023/03/31 06:23:45;;;;;;;2.80;1.63;;;;;;;11.79;100.00;94373.53;4393176;32;20192;-48
2023/03/31 06:26:16;;;;;;;2.53;1.77;;;;;;;12.29;100.00;94368.87;4392086;32;20197;-48
2023/03/31 06:28:42;;;;;;;3.33;1.70;;;;;;;12.59;100.00;94364.22;4374545;32;20197;-46
2023/03/31 06:31:14;;;;;;;1.87;1.60;;;;;;;12.92;98.26;94369.47;4372065;32;20212;-48
2023/03/31 06:33:41;;;;;;;1.33;1.23;;;;;;;13.20;94.17;94360.87;4391584;32;20188;-45
2023/03/31 06:36:07;;;;;;;0.80;0.80;;;;;;;13.37;92.09;94358.75;4391492;32;20271;-47
2023/03/31 06:38:34;;;;;;;1.80;1.70;;;;;;;12.22;88.94;94347.38;4388914;32;20207;-44
2023/03/31 06:41:00;;;;;;;1.83;1.77;;;;;;;11.56;95.03;94346.47;4378527;32;20211;-46
2023/03/31 06:43:25;;;;;;;2.70;1.70;;;;;;;11.05;93.89;94347.53;4378007;32;20192;-44
2023/03/31 06:45:55;;;;;;;1.60;1.50;;;;;;;10.42;98.53;94351.81;4387590;32;20215;-44
2023/03/31 06:48:22;;;;;;;1.67;1.03;;;;;;;10.14;98.44;94354.81;4384068;32;20193;-45
2023/03/31 06:50:47;;;;;;;1.60;1.50;;;;;;;9.85;100.00;94349.34;4373948;32;20047;-45
2023/03/31 06:53:12;;;;;;;1.87;1.77;;;;;;;10.08;100.00;94339.38;4377072;32;20206;-45
2023/03/31 06:55:38;;;;;;;2.17;1.97;;;;;;;9.97;100.00;94336.28;4372661;32;20188;-47
2023/03/31 06:58:04;;;;;;;1.43;1.43;;;;;;;9.81;100.00;94320.06;4372235;32;20242;-47
2023/03/31 07:00:30;;;;;;;1.40;1.33;;;;;;;9.87;100.00;94340.00;4392754;32;20188;-55
2023/03/31 07:02:56;;;;;;;1.87;1.77;;;;;;;9.95;100.00;94351.72;4387057;32;20234;-54
2023/03/31 07:05:28;;;;;;;1.17;1.17;;;;;;;10.11;100.00;94344.81;4372020;32;20235;-53
2023/03/31 07:07:54;;;;;;;1.50;1.40;;;;;;;10.21;100.00;94354.34;4391648;32;20213;-51
2023/03/31 07:10:20;;;;;;;0.90;0.90;;;;;;;10.44;99.55;94373.47;4392507;32;20184;-55
2023/03/31 07:12:46;;;;;;;3.63;1.50;;;;;;;10.58;98.63;94405.91;4393779;32;20215;-55
2023/03/31 07:15:11;;;;;;;1.43;1.43;;;;;;;10.66;98.04;94434.28;4369361;32;20189;-52
2023/03/31 07:17:40;;;;;;;2.07;1.90;;;;;;;10.29;98.38;94425.91;4366164;32;20318;-53
2023/03/31 07:20:25;;;;;;;0.80;0.80;;;;;;;10.61;98.52;94474.22;4375141;32;20264;-56
2023/03/31 07:22:50;;;;;;;2.07;1.97;;;;;;;10.72;99.00;94475.47;4391510;32;20196;-51
2023/03/31 07:25:16;;;;;;;1.43;1.43;;;;;;;10.91;98.03;94449.38;4388935;32;20279;-55
2023/03/31 07:27:42;;;;;;;1.53;1.43;;;;;;;10.73;98.13;94455.03;4393184;32;20236;-54
2023/03/31 07:30:11;;;;;;;0.50;0.50;;;;;;;10.60;98.43;94483.25;4388277;32;20278;-54
2023/03/31 07:32:39;;;;;;;0.70;0.70;;;;;;;10.64;96.28;94489.50;4392270;32;20279;-53
2023/03/31 07:35:09;;;;;;;1.27;1.27;;;;;;;10.56;97.15;94501.69;4391157;32;20241;-49
2023/03/31 07:37:40;;;;;;;2.00;1.90;;;;;;;10.58;97.95;94496.88;4390752;32;20215;-55
2023/03/31 07:40:06;;;;;;;1.10;1.10;;;;;;;10.72;98.32;94475.47;4378303;32;20192;-56
2023/03/31 07:42:33;;;;;;;2.27;1.63;;;;;;;10.93;98.12;94475.59;4392444;32;20219;-50
2023/03/31 07:44:58;;;;;;;1.70;1.70;;;;;;;10.96;98.05;94465.13;4371204;32;20222;-53
2023/03/31 07:47:24;;;;;;;1.73;1.73;;;;;;;11.06;97.20;94432.13;4385991;32;20188;-53
2023/03/31 07:49:49;;;;;;;1.37;1.27;;;;;;;11.19;97.31;94415.25;4372359;32;20255;-55
2023/03/31 07:52:16;;;;;;;0.93;0.93;;;;;;;11.10;97.34;94416.34;4391832;32;20180;-52
2023/03/31 07:54:41;;;;;;;3.23;1.70;;;;;;;10.90;98.02;94408.00;4381962;32;20238;-56
2023/03/31 07:57:07;;;;;;;1.50;1.40;;;;;;;11.07;97.74;94411.69;4376099;32;22686;-54
2023/03/31 07:59:33;;;;;;;1.60;1.50;;;;;;;10.96;98.05;94409.41;4375554;32;20192;-53
2023/03/31 08:01:58;;;;;;;3.80;1.27;;;;;;;10.96;97.96;94390.81;4392115;32;20222;-53
2023/03/31 08:04:24;;;;;;;1.23;1.23;;;;;;;10.83;97.92;94377.75;4390159;32;20180;-55
2023/03/31 08:06:50;;;;;;;3.37;1.87;;;;;;;11.00;98.20;94375.81;4386379;32;20207;-54
2023/03/31 08:09:16;;;;;;;1.20;1.20;;;;;;;10.98;97.87;94340.88;4393466;32;20282;-57
2023/03/31 08:11:42;;;;;;;1.50;1.50;;;;;;;11.24;97.71;94343.38;4387921;32;20213;-53
2023/03/31 08:14:07;;;;;;;1.57;1.57;;;;;;;11.21;97.40;94317.47;4391638;32;20224;-56
2023/03/31 08:16:33;;;;;;;1.67;1.57;;;;;;;11.44;96.66;94328.56;4388277;32;20196;-55
2023/03/31 08:18:58;;;;;;;2.47;2.33;;;;;;;11.52;96.45;94341.00;4373135;32;20211;-56
2023/03/31 08:21:23;;;;;;;1.53;1.27;;;;;;;11.78;96.05;94335.53;4387211;32;20230;-53
2023/03/31 08:23:51;;;;;;;1.37;1.27;;;;;;;11.68;95.51;94323.37;4363208;32;20235;-56
2023/03/31 08:26:17;;;;;;;1.40;1.30;;;;;;;11.66;95.40;94343.41;4368794;32;20180;-58
2023/03/31 08:28:43;;;;;;;1.60;1.60;;;;;;;11.84;95.21;94344.13;4392772;32;20232;-58
2023/03/31 08:31:09;;;;;;;7.80;1.43;;;;;;;11.80;94.73;94343.19;4369175;32;20204;-56
2023/03/31 08:33:35;;;;;;;1.70;1.27;;;;;;;11.75;94.42;94335.38;4372841;32;20204;-53
2023/03/31 08:36:07;;;;;;;1.73;1.50;;;;;;;11.90;94.24;94343.56;4391251;32;20184;-54
2023/03/31 08:38:36;;;;;;;1.40;1.17;;;;;;;11.76;93.68;94311.19;4386675;32;20203;-55
2023/03/31 08:41:03;;;;;;;3.60;2.03;;;;;;;11.66;94.22;94311.53;4385412;32;20216;-50
2023/03/31 08:43:35;;;;;;;1.33;1.33;;;;;;;11.39;94.85;94334.09;4387085;32;20298;-54
2023/03/31 08:46:03;;;;;;;4.00;2.03;;;;;;;11.44;95.43;94327.78;4391414;32;20180;-55
2023/03/31 08:48:56;;;;;;;1.23;1.20;;;;;;;11.61;95.18;94336.44;4386102;32;20184;-56
2023/03/31 08:51:27;;;;;;;3.20;1.43;;;;;;;11.44;95.42;94344.50;4375589;32;20224;-55
2023/03/31 08:54:02;;;;;;;1.63;1.57;;;;;;;11.44;94.59;94372.94;4371416;32;20188;-55
2023/03/31 08:56:28;;;;;;;0.97;0.97;;;;;;;11.47;92.50;94372.28;4385198;32;20255;-56
2023/03/31 08:58:54;;;;;;;1.47;1.40;;;;;;;11.46;89.66;94386.66;4372287;32;20189;-54
2023/03/31 09:01:41;;;;;;;1.10;1.10;;;;;;;11.70;89.45;94408.09;4374190;32;20187;-56
2023/03/31 09:04:33;;;;;;;0.87;0.87;;;;;;;11.79;88.60;94424.00;4376173;32;20256;-48
2023/03/31 09:07:01;;;;;;;1.13;1.13;;;;;;;11.84;87.57;94421.19;4373494;32;20184;-57
2023/03/31 09:09:48;;;;;;;1.07;1.07;;;;;;;11.98;86.67;94395.12;4388341;32;20199;-57
2023/03/31 09:12:18;;;;;;;1.10;1.00;;;;;;;11.78;87.08;94390.56;4389499;32;20183;-57
2023/03/31 09:15:00;;;;;;;1.40;1.30;;;;;;;11.78;86.94;94394.00;4391316;32;20193;-54
2023/03/31 09:17:32;;;;;;;0.80;0.80;;;;;;;12.03;85.20;94389.59;4377028;32;20215;-55
2023/03/31 09:20:07;;;;;;;3.70;1.87;;;;;;;12.02;85.82;94378.19;4385706;32;20189;-53
2023/03/31 09:22:39;;;;;;;1.13;1.13;;;;;;;11.97;86.39;94351.03;4377786;32;20211;-56
2023/03/31 09:25:11;;;;;;;0.70;0.70;;;;;;;11.99;86.96;94378.06;4386339;32;20215;-54
2023/03/31 09:27:41;;;;;;;0.93;0.93;;;;;;;12.11;86.65;94372.00;4391092;32;20203;-55
2023/03/31 09:30:14;;;;;;;1.63;1.53;;;;;;;12.05;86.48;94352.84;4374977;32;20200;-55
2023/03/31 09:32:40;;;;;;;1.13;1.13;;;;;;;12.16;87.90;94364.62;4371101;32;20203;-55
2023/03/31 09:35:20;;;;;;;0.90;0.90;;;;;;;12.25;88.18;94338.75;4383012;32;20208;-54
2023/03/31 09:37:46;;;;;;;2.10;1.63;;;;;;;12.41;87.99;94340.78;4388923;32;20203;-54
2023/03/31 09:40:20;;;;;;;1.80;1.70;;;;;;;12.66;87.58;94335.19;4387733;32;20189;-51
2023/03/31 09:43:07;;;;;;;0.87;0.87;;;;;;;12.61;87.62;94319.44;4381987;32;20259;-55
2023/03/31 09:45:34;;;;;;;1.90;1.80;;;;;;;12.81;86.11;94322.34;4383682;32;20208;-55
2023/03/31 09:48:08;;;;;;;1.40;1.33;;;;;;;12.69;85.07;94315.87;4364082;32;20207;-55
2023/03/31 09:50:44;;;;;;;2.50;1.43;;;;;;;12.84;85.34;94300.37;4372515;32;20184;-47
2023/03/31 09:53:20;;;;;;;0.93;0.93;;;;;;;12.87;85.54;94300.50;4390683;32;20203;-53
2023/03/31 09:55:55;;;;;;;7.43;1.30;;;;;;;12.75;86.21;94297.81;4370144;32;20234;-51
2023/03/31 09:58:23;;;;;;;0.87;0.87;;;;;;;12.83;85.14;94307.59;4389335;32;20188;-48
2023/03/31 10:00:59;;;;;;;0.80;0.80;;;;;;;12.79;85.82;94309.34;4379623;32;20274;-50
2023/03/31 10:03:28;;;;;;;0.87;0.87;;;;;;;12.81;86.29;94307.16;4392668;32;20192;-49
2023/03/31 10:05:55;;;;;;;1.00;1.00;;;;;;;13.04;85.78;94304.81;4389017;32;20227;-49
2023/03/31 10:08:23;;;;;;;1.17;1.13;;;;;;;13.21;84.91;94299.28;4392653;32;20246;-45
2023/03/31 10:10:53;;;;;;;0.77;0.70;;;;;;;13.20;85.02;94315.59;4386469;32;20203;-48
2023/03/31 10:13:25;;;;;;;0.73;0.73;;;;;;;13.15;85.01;94305.13;4384142;32;20242;-50
2023/03/31 10:15:53;;;;;;;0.80;0.80;;;;;;;13.19;83.86;94304.16;4391701;32;20183;-49
2023/03/31 10:18:19;;;;;;;0.90;0.90;;;;;;;13.14;82.74;94295.59;4388863;32;20203;-51
2023/03/31 10:20:51;;;;;;;1.17;1.00;;;;;;;13.13;82.84;94286.81;4388208;32;20208;-50
2023/03/31 10:23:36;;;;;;;0.90;0.90;;;;;;;13.28;83.94;94275.53;4387601;32;20192;-46
2023/03/31 10:26:03;;;;;;;1.07;0.87;;;;;;;13.44;83.64;94286.28;4376506;32;20216;-47
2023/03/31 10:28:34;;;;;;;0.80;0.80;;;;;;;13.53;82.67;94272.81;4377968;32;20237;-48
2023/03/31 10:31:02;;;;;;;0.63;0.63;;;;;;;13.49;83.71;94264.72;4386723;32;20180;-49
2023/03/31 10:33:30;;;;;;;0.37;0.37;;;;;;;13.50;83.42;94260.94;4377485;32;20184;-47
2023/03/31 10:36:02;;;;;;;0.97;0.97;;;;;;;13.51;82.68;94261.72;4389363;32;20185;-47
2023/03/31 10:38:41;;;;;;;1.50;1.33;;;;;;;13.46;81.92;94251.31;4388736;32;20185;-48
2023/03/31 10:41:08;;;;;;;1.20;1.20;;;;;;;13.54;81.92;94235.16;4375241;32;20196;-51
2023/03/31 10:43:42;;;;;;;0.77;0.77;;;;;;;13.68;80.40;94230.25;4384821;32;20188;-51
2023/03/31 10:46:08;;;;;;;1.37;1.33;;;;;;;13.83;80.76;94227.94;4388336;32;20259;-51
2023/03/31 10:48:39;;;;;;;1.20;1.10;;;;;;;14.08;80.32;94221.38;4391442;32;20193;-50
2023/03/31 10:51:10;;;;;;;0.60;0.60;;;;;;;14.19;79.11;94234.97;4384798;32;20199;-49
2023/03/31 10:53:59;;;;;;;0.83;0.83;;;;;;;14.28;78.96;94233.72;4373425;32;20263;-50
2023/03/31 10:56:40;;;;;;;1.83;0.80;;;;;;;14.22;78.59;94212.97;4392354;32;20207;-50
2023/03/31 10:59:06;;;;;;;0.60;0.60;;;;;;;14.11;79.01;94204.72;4388590;32;20188;-49
2023/03/31 11:01:44;;;;;;;3.20;1.27;;;;;;;14.20;79.32;94204.53;4387391;32;20224;-52
2023/03/31 11:04:26;;;;;;;1.03;1.00;;;;;;;14.00;78.61;94180.41;4386810;32;20211;-50
2023/03/31 11:07:23;;;;;;;1.50;1.40;;;;;;;14.17;79.36;94183.88;4363271;32;20196;-50
2023/03/31 11:10:07;;;;;;;0.90;0.90;;;;;;;14.08;78.98;94176.06;4389242;32;20210;-50
2023/03/31 11:12:50;;;;;;;0.50;0.50;;;;;;;13.94;79.25;94181.78;4384366;32;20236;-49
2023/03/31 11:15:35;;;;;;;1.10;1.10;;;;;;;14.05;78.14;94182.06;4359957;32;20212;-48
2023/03/31 11:18:31;;;;;;;1.20;1.20;;;;;;;14.12;78.52;94170.81;4380568;32;20200;-53
2023/03/31 11:21:27;;;;;;;0.90;0.90;;;;;;;13.95;78.79;94182.56;4365791;32;20211;-55
2023/03/31 11:24:08;;;;;;;0.90;0.90;;;;;;;13.85;80.40;94188.41;4366053;32;20252;-53
2023/03/31 11:27:12;;;;;;;1.17;0.97;;;;;;;13.57;82.17;94223.81;4363209;32;20188;-52
2023/03/31 11:29:45;;;;;;;0.17;0.17;;;;;;;13.39;83.84;94337.13;4378336;32;20359;-51
2023/03/31 11:32:45;;;;;;;0.70;0.70;;;;;;;12.60;79.99;94322.41;4385341;32;20193;-52
2023/03/31 11:35:20;;;;;;;0.20;0.20;;;;;;;12.32;82.92;94269.81;4376859;32;20184;-54
2023/03/31 11:38:16;;;;;;;0.10;0.10;;;;;;;11.90;84.40;94268.38;4384132;32;20180;-53
2023/03/31 11:41:07;;;;;;;0.43;0.43;;;;;;;11.64;85.13;94228.72;4376746;32;20185;-56
2023/03/31 11:43:55;;;;;;;0.53;0.53;;;;;;;11.50;87.21;94238.84;4378137;32;20234;-57
2023/03/31 11:46:37;;;;;;;0.50;0.50;;;;;;;11.57;88.07;94239.13;4385719;32;20204;-55
2023/03/31 11:49:26;;;;;;;0.30;0.30;;;;;;;11.38;87.71;94223.66;4389585;32;20246;-52
2023/03/31 11:52:08;;;;;;;0.23;0.23;;;;;;;11.38;87.34;94205.06;4388350;32;20221;-53